Time;durP1;ratioP1;P1;durP2;ratioP2;P2;SDS_P1;SDS_P2;PMS_P1;PMS_P2;Temp;Humidity;BMP_temperature;BMP_pressure;BME280_temperature;BME280_humidity;BME280_pressure;Samples;Min_cycle;Max_cycle;Signal;HPM_P1;HPM_P2
2022/12/30 00:03:30;;;;;;;;;;;;;;;;;;;;;
2022/12/30 00:09:17;;;;;;;29.50;16.50;;;;;;;8.76;53.12;98819.72;235409;1193;138309;-72
2022/12/30 00:33:38;;;;;;;;;;;;;;;;;;;;;
2022/12/30 00:38:46;;;;;;;22.90;13.70;;;;;;;8.91;52.50;98818.13;235266;1193;138666;-70
2022/12/30 00:44:54;;;;;;;25.80;14.80;;;;;;;8.93;52.26;98824.88;235159;1193;138944;-74
2022/12/30 00:56:30;;;;;;;25.10;13.50;;;;;;;9.01;51.93;98825.84;235038;1193;138762;-79
2022/12/30 01:08:52;;;;;;;27.60;15.30;;;;;;;9.04;52.09;98830.30;234913;1193;124699;-65
2022/12/30 01:14:11;;;;;;;23.00;12.70;;;;;;;9.04;52.06;98827.45;234914;1197;140828;-65
2022/12/30 01:21:00;;;;;;;;;;;;;;;;;;;;;
2022/12/30 01:33:54;;;;;;;21.50;12.40;;;;;;;9.03;51.72;98798.31;234682;1193;139410;-68
2022/12/30 01:39:43;;;;;;;22.40;12.00;;;;;;;9.00;51.82;98785.91;235070;1193;138799;-71
2022/12/30 01:53:32;;;;;;;24.90;14.60;;;;;;;8.69;52.17;98787.76;235541;1197;138896;-75
2022/12/30 01:59:04;;;;;;;20.80;11.90;;;;;;;8.46;52.56;98782.52;234892;1193;138713;-70
2022/12/30 02:04:30;;;;;;;19.80;12.10;;;;;;;8.65;52.48;98778.43;235208;1193;139032;-75
2022/12/30 02:10:26;;;;;;;;;;;;;;;;;;;;;
2022/12/30 02:25:07;;;;;;;;;;;;;;;;;;;;;
2022/12/30 02:30:42;;;;;;;17.30;10.60;;;;;;;8.85;52.08;98775.65;235321;1193;138426;-74
2022/12/30 02:37:25;;;;;;;20.60;11.00;;;;;;;8.87;52.07;98770.60;235217;1193;139035;-75
2022/12/30 02:52:14;;;;;;;20.90;12.40;;;;;;;8.93;51.88;98783.69;234510;1196;140687;-72
2022/12/30 03:09:21;;;;;;;17.40;10.10;;;;;;;8.81;52.15;98790.77;234235;1203;139723;-70
2022/12/30 03:15:53;;;;;;;17.60;10.10;;;;;;;8.91;52.05;98791.23;234183;1200;140531;-64
2022/12/30 03:21:18;;;;;;;15.90;9.00;;;;;;;9.00;51.74;98789.27;234613;1196;139516;-69
2022/12/30 03:27:16;;;;;;;16.30;9.70;;;;;;;9.00;51.87;98793.52;235085;1193;139070;-71
2022/12/30 03:33:00;;;;;;;;;;;;;;;;;;;;;
2022/12/30 03:39:06;;;;;;;17.30;10.60;;;;;;;9.06;51.66;98808.38;235149;1193;139170;-75
2022/12/30 03:44:16;;;;;;;33.70;21.50;;;;;;;9.00;52.13;98823.76;235031;1193;138935;-70
2022/12/30 03:49:58;;;;;;;80.30;49.20;;;;;;;8.69;52.86;98827.70;235105;1193;139682;-69
2022/12/30 03:55:55;;;;;;;;;;;;;;;;;;;;;
2022/12/30 04:02:30;;;;;;;;;;;;;;;;;;;;;
2022/12/30 04:08:00;;;;;;;23.70;12.50;;;;;;;7.81;55.16;98844.76;234967;1193;138631;-70
2022/12/30 04:14:27;;;;;;;85.50;57.10;;;;;;;7.69;56.15;98850.87;234975;1193;139635;-72
2022/12/30 04:26:20;;;;;;;19.80;10.60;;;;;;;7.74;55.76;98870.92;234873;1193;138554;-69
2022/12/30 04:38:24;;;;;;;22.30;10.40;;;;;;;8.03;55.14;98873.98;235112;1193;139514;-72
2022/12/30 04:43:52;;;;;;;14.90;10.00;;;;;;;8.19;54.61;98874.33;234967;1193;139439;-69
2022/12/30 04:49:56;;;;;;;17.80;9.60;;;;;;;8.35;54.40;98876.63;234965;1192;138460;-71
2022/12/30 04:55:45;;;;;;;50.50;32.90;;;;;;;8.46;54.16;98891.43;235109;1193;139276;-70
2022/12/30 05:01:03;;;;;;;18.60;10.40;;;;;;;8.57;53.86;98901.27;235071;1193;139385;-76
2022/12/30 05:06:31;;;;;;;21.10;10.90;;;;;;;8.46;53.69;98905.73;235047;1193;138690;-74
2022/12/30 05:18:42;;;;;;;21.90;12.30;;;;;;;8.51;53.49;98921.73;234461;1193;138818;-72
2022/12/30 05:31:42;;;;;;;;;;;;;;;;;;;;;
2022/12/30 05:37:20;;;;;;;21.60;13.30;;;;;;;8.38;53.74;98962.23;235145;1192;139477;-71
2022/12/30 05:43:10;;;;;;;;;;;;;;;;;;;;;
2022/12/30 05:48:58;;;;;;;24.00;13.40;;;;;;;8.34;53.98;98979.23;235147;1192;138668;-74
2022/12/30 05:54:29;;;;;;;23.10;13.40;;;;;;;8.36;53.98;98983.02;235138;1193;138603;-71
2022/12/30 06:00:45;;;;;;;24.60;13.40;;;;;;;8.36;54.11;98981.05;234934;1193;138768;-70
2022/12/30 06:13:38;;;;;;;29.20;15.40;;;;;;;8.23;54.59;98997.30;235072;1193;140669;-71
2022/12/30 06:19:21;;;;;;;29.20;17.20;;;;;;;8.12;54.87;99012.02;235060;1193;140150;-73
2022/12/30 06:25:20;;;;;;;30.60;17.00;;;;;;;7.97;55.17;99022.55;235118;1196;138812;-73
2022/12/30 06:31:55;;;;;;;;;;;;;;;;;;;;;
2022/12/30 06:37:24;;;;;;;30.00;19.70;;;;;;;7.84;55.75;99058.18;235021;1192;138789;-71
2022/12/30 06:43:41;;;;;;;32.10;19.00;;;;;;;7.83;56.06;99073.75;234978;1192;139011;-72
2022/12/30 06:49:45;;;;;;;33.70;21.00;;;;;;;7.77;56.42;99084.11;235046;1193;139172;-70
2022/12/30 06:55:29;;;;;;;33.00;20.60;;;;;;;7.80;56.69;99087.48;235235;1192;138726;-75
2022/12/30 07:01:36;;;;;;;;;;;;;;;;;;;;;
2022/12/30 07:07:32;;;;;;;35.90;20.80;;;;;;;7.78;57.03;99114.60;235155;1192;138903;-76
2022/12/30 07:12:53;;;;;;;36.10;20.90;;;;;;;7.76;57.15;99122.86;234997;1193;138577;-70
2022/12/30 07:18:52;;;;;;;37.30;20.80;;;;;;;7.80;57.02;99126.02;235162;1192;139145;-72
2022/12/30 07:24:25;;;;;;;32.90;20.80;;;;;;;7.82;56.86;99134.20;235088;1192;139054;-73
2022/12/30 07:36:25;;;;;;;40.60;21.70;;;;;;;7.79;57.30;99142.45;234821;1192;138945;-71
2022/12/30 07:42:32;;;;;;;41.90;21.70;;;;;;;7.81;57.40;99141.83;235029;1192;138807;-76
2022/12/30 07:48:15;;;;;;;38.40;21.60;;;;;;;7.79;57.48;99160.48;234991;1192;138728;-71
2022/12/30 07:54:37;;;;;;;40.80;21.20;;;;;;;7.74;57.58;99167.42;235115;1194;138702;-76
2022/12/30 08:00:02;;;;;;;34.40;20.10;;;;;;;7.72;57.74;99174.06;235114;1193;138852;-75
2022/12/30 08:05:30;;;;;;;32.20;21.10;;;;;;;7.71;57.83;99187.20;235098;1192;139000;-73
2022/12/30 08:18:30;;;;;;;34.50;20.40;;;;;;;7.69;58.28;99194.52;234883;1196;139029;-77
2022/12/30 08:24:08;;;;;;;32.90;19.80;;;;;;;7.74;58.44;99199.22;235063;1193;140199;-77
2022/12/30 08:29:32;;;;;;;29.20;17.80;;;;;;;7.80;58.55;99209.73;235154;1192;138966;-77
2022/12/30 08:35:01;;;;;;;29.60;17.30;;;;;;;7.85;58.47;99214.60;235280;1192;140090;-73
2022/12/30 08:40:50;;;;;;;32.30;17.80;;;;;;;7.94;58.24;99216.48;235270;1192;138995;-74
2022/12/30 08:46:08;;;;;;;28.30;16.50;;;;;;;8.02;58.26;99218.20;235346;1194;138742;-73
2022/12/30 08:53:49;;;;;;;;;;;;;;;;;;;;;
2022/12/30 09:00:18;;;;;;;;;;;;;;;;;;;;;
2022/12/30 09:05:34;;;;;;;29.70;17.80;;;;;;;8.13;58.10;99256.19;235194;1192;138786;-78
2022/12/30 09:11:32;;;;;;;;;;;;;;;;;;;;;
2022/12/30 09:16:36;;;;;;;30.90;18.00;;;;;;;8.16;58.31;99276.72;235368;1192;139846;-72
2022/12/30 09:22:22;;;;;;;29.10;17.80;;;;;;;8.22;58.11;99271.99;234390;1192;139791;-79
2022/12/30 09:27:39;;;;;;;35.20;18.50;;;;;;;8.21;58.10;99269.75;235068;1193;139334;-70
2022/12/30 09:33:13;;;;;;;72.70;43.40;;;;;;;8.28;58.37;99264.97;235231;1192;139049;-73
2022/12/30 09:38:16;;;;;;;36.20;19.20;;;;;;;8.43;58.50;99266.41;235043;1192;139168;-73
2022/12/30 09:43:46;;;;;;;33.10;18.30;;;;;;;8.52;57.97;99264.56;235169;1192;138873;-72
2022/12/30 09:50:08;;;;;;;28.90;18.20;;;;;;;8.57;58.05;99268.01;235114;1193;138309;-73
2022/12/30 09:55:26;;;;;;;27.50;16.90;;;;;;;8.67;57.79;99258.45;234948;1194;139154;-72
2022/12/30 10:01:04;;;;;;;33.60;17.80;;;;;;;8.77;57.82;99257.96;235249;1192;138959;-70
2022/12/30 10:07:03;;;;;;;36.50;19.20;;;;;;;8.85;57.66;99254.38;235074;1193;138835;-74
2022/12/30 10:12:33;;;;;;;33.70;18.10;;;;;;;8.90;57.51;99254.48;235119;1193;139338;-73
2022/12/30 10:18:18;;;;;;;36.70;19.50;;;;;;;8.97;57.44;99249.33;234816;1193;139127;-73
2022/12/30 10:24:10;;;;;;;;;;;;;;;;;;;;;
2022/12/30 10:30:59;;;;;;;37.40;18.40;;;;;;;9.18;56.93;99243.63;234753;1193;139629;-71
2022/12/30 10:36:04;;;;;;;30.40;18.40;;;;;;;9.20;56.94;99233.95;234801;1193;139545;-71
2022/12/30 10:42:42;;;;;;;37.10;19.10;;;;;;;9.21;57.16;99239.23;234845;1193;138810;-72
2022/12/30 10:54:45;;;;;;;28.10;17.20;;;;;;;9.57;56.87;99232.48;234898;1193;139757;-70
2022/12/30 11:00:08;;;;;;;;;;;;;;;;;;;;;
2022/12/30 11:05:59;;;;;;;;;;;;;;;;;;;;;
2022/12/30 11:11:25;;;;;;;;;;;;;;;;;;;;;
2022/12/30 11:17:17;;;;;;;;;;;;;;;;;;;;;
2022/12/30 11:23:06;;;;;;;30.80;17.60;;;;;;;9.78;56.40;99237.17;235281;1192;139491;-71
2022/12/30 11:28:52;;;;;;;29.80;18.00;;;;;;;9.87;56.26;99244.31;235312;1194;139004;-70
2022/12/30 11:34:31;;;;;;;29.10;17.30;;;;;;;9.91;56.15;99241.95;235079;1192;139053;-70
2022/12/30 11:41:06;;;;;;;29.50;18.00;;;;;;;9.93;56.10;99249.64;235071;1192;140117;-71
2022/12/30 11:46:23;;;;;;;34.10;18.00;;;;;;;9.96;56.37;99245.38;234242;1198;138969;-73
2022/12/30 11:53:15;;;;;;;28.70;17.60;;;;;;;10.04;56.25;99245.82;234777;1195;139151;-71
2022/12/30 11:58:35;;;;;;;29.30;16.50;;;;;;;10.07;56.90;99241.39;233820;1199;139728;-71
2022/12/30 12:10:23;;;;;;;;;;;;;;;;;;;;;
2022/12/30 12:16:13;;;;;;;26.90;14.80;;;;;;;10.22;56.35;99237.52;234900;1192;139464;-71
2022/12/30 12:21:40;;;;;;;27.60;15.10;;;;;;;10.26;56.91;99243.56;234868;1196;140509;-71
2022/12/30 12:27:05;;;;;;;27.00;14.60;;;;;;;10.37;56.57;99243.42;234895;1193;139412;-71
2022/12/30 12:33:13;;;;;;;22.40;13.70;;;;;;;10.44;56.48;99250.49;234751;1193;139478;-71
2022/12/30 12:38:38;;;;;;;25.70;12.50;;;;;;;10.49;56.46;99241.14;234830;1193;140597;-71
2022/12/30 12:44:43;;;;;;;24.00;12.00;;;;;;;10.55;56.23;99238.86;234761;1195;139926;-70
2022/12/30 12:50:31;;;;;;;21.90;12.70;;;;;;;10.58;56.17;99238.63;234665;1192;139086;-71
2022/12/30 12:56:24;;;;;;;23.00;13.50;;;;;;;10.62;56.39;99244.27;234813;1193;139763;-71
2022/12/30 13:01:56;;;;;;;21.20;13.60;;;;;;;10.65;56.18;99247.83;234996;1194;139734;-71
2022/12/30 13:07:45;;;;;;;25.70;13.80;;;;;;;10.62;56.27;99261.11;234922;1193;139268;-73
2022/12/30 13:13:31;;;;;;;20.90;13.60;;;;;;;10.60;55.86;99262.65;234892;1193;139791;-69
2022/12/30 13:19:51;;;;;;;;;;;;;;;;;;;;;
2022/12/30 13:26:25;;;;;;;25.60;15.40;;;;;;;10.63;56.25;99249.71;234780;1193;139290;-71
2022/12/30 13:32:06;;;;;;;30.40;15.40;;;;;;;10.63;56.11;99249.87;234498;1193;139600;-71
2022/12/30 13:38:46;;;;;;;25.60;15.10;;;;;;;10.62;55.96;99253.89;234909;1193;139552;-72
2022/12/30 13:44:22;;;;;;;22.60;14.40;;;;;;;10.59;56.19;99249.23;234886;1197;139308;-71
2022/12/30 13:49:49;;;;;;;27.60;15.10;;;;;;;10.56;56.37;99263.28;234817;1193;139512;-71
2022/12/30 13:55:29;;;;;;;22.30;15.50;;;;;;;10.55;56.17;99264.53;234924;1193;138966;-72
2022/12/30 14:02:01;;;;;;;26.20;15.50;;;;;;;10.55;56.26;99269.73;234904;1193;139636;-71
2022/12/30 14:07:51;;;;;;;26.30;14.40;;;;;;;10.51;55.99;99259.11;235101;1193;139031;-72
2022/12/30 14:14:13;;;;;;;23.90;14.60;;;;;;;10.50;56.02;99253.70;235152;1192;139340;-73
2022/12/30 14:20:23;;;;;;;28.40;15.20;;;;;;;10.46;56.21;99256.75;235071;1192;139601;-71
2022/12/30 14:26:47;;;;;;;31.60;16.30;;;;;;;10.38;56.14;99259.67;234538;1195;139616;-68
2022/12/30 14:32:25;;;;;;;26.40;16.00;;;;;;;10.37;56.73;99261.15;234996;1193;139591;-70
2022/12/30 14:37:32;;;;;;;26.00;15.90;;;;;;;10.32;56.38;99255.45;234908;1194;140078;-72
2022/12/30 14:43:04;;;;;;;28.10;16.90;;;;;;;10.24;56.83;99261.93;234913;1195;139637;-73
2022/12/30 14:49:03;;;;;;;28.40;17.40;;;;;;;10.16;56.62;99273.83;234820;1195;139311;-72
2022/12/30 14:54:44;;;;;;;;;;;;;;;;;;;;;
2022/12/30 15:00:11;;;;;;;27.70;19.10;;;;;;;10.08;57.26;99275.20;234778;1197;139555;-74
2022/12/30 15:05:28;;;;;;;38.00;18.50;;;;;;;9.98;57.30;99273.65;235148;1193;139793;-72
2022/12/30 15:10:58;;;;;;;31.00;17.90;;;;;;;9.81;57.64;99279.71;234888;1195;139058;-74
2022/12/30 15:16:06;;;;;;;43.50;19.50;;;;;;;9.71;57.34;99278.14;234669;1194;139988;-73
2022/12/30 15:21:20;;;;;;;37.40;18.80;;;;;;;9.53;57.60;99274.70;234711;1194;140502;-74
2022/12/30 15:26:29;;;;;;;35.80;18.70;;;;;;;9.27;58.15;99267.56;234880;1193;139314;-73
2022/12/30 15:32:00;;;;;;;34.30;19.20;;;;;;;9.02;58.14;99267.30;234749;1197;140121;-71
2022/12/30 15:37:30;;;;;;;;;;;;;;;;;;;;;
2022/12/30 15:42:47;;;;;;;40.30;20.10;;;;;;;8.55;59.24;99276.42;234708;1196;139088;-74
2022/12/30 15:47:55;;;;;;;47.40;21.30;;;;;;;8.36;59.70;99274.02;234987;1195;138993;-73
2022/12/30 15:53:06;;;;;;;56.20;32.20;;;;;;;8.26;60.49;99277.79;235025;1193;139536;-71
2022/12/30 15:58:23;;;;;;;36.70;22.30;;;;;;;8.22;61.19;99285.60;234866;1194;139652;-73
2022/12/30 16:03:28;;;;;;;42.00;21.70;;;;;;;8.04;60.78;99285.22;234747;1193;139620;-72
2022/12/30 16:08:36;;;;;;;43.30;21.70;;;;;;;7.91;61.18;99281.82;234716;1193;138773;-71
2022/12/30 16:13:53;;;;;;;89.40;47.90;;;;;;;7.84;61.66;99295.38;234713;1195;138631;-75
2022/12/30 16:19:19;;;;;;;80.20;46.60;;;;;;;8.27;64.40;99300.40;234866;1193;141186;-72
2022/12/30 16:24:28;;;;;;;49.40;22.50;;;;;;;8.51;61.97;99307.19;234936;1195;140260;-72
2022/12/30 16:29:53;;;;;;;41.90;22.80;;;;;;;8.35;60.84;99311.51;234778;1193;139637;-72
2022/12/30 16:35:47;;;;;;;43.40;23.70;;;;;;;8.09;61.09;99314.52;235014;1193;139663;-71
2022/12/30 16:41:25;;;;;;;;;;;;;;;;;;;;;
2022/12/30 16:46:46;;;;;;;83.20;50.40;;;;;;;7.55;62.16;99312.95;234825;1196;139576;-71
2022/12/30 16:52:05;;;;;;;56.90;36.50;;;;;;;7.52;63.23;99313.80;234886;1198;139178;-69
2022/12/30 16:57:15;;;;;;;39.90;23.20;;;;;;;7.57;62.25;99318.35;234894;1193;140188;-71
2022/12/30 17:03:28;;;;;;;39.40;23.30;;;;;;;7.41;61.96;99316.06;234856;1193;139043;-71
2022/12/30 17:15:56;;;;;;;41.50;24.70;;;;;;;7.06;62.56;99314.77;234564;1194;139467;-70
2022/12/30 17:21:26;;;;;;;37.80;22.90;;;;;;;6.91;62.66;99306.92;234851;1196;141049;-69
2022/12/30 17:27:33;;;;;;;39.50;23.80;;;;;;;6.80;62.71;99305.48;234883;1193;140754;-70
2022/12/30 17:33:03;;;;;;;42.60;23.10;;;;;;;6.72;62.88;99309.52;234810;1193;139716;-71
2022/12/30 17:38:23;;;;;;;41.80;23.60;;;;;;;6.64;63.15;99315.48;234934;1195;139821;-70
2022/12/30 17:44:02;;;;;;;40.00;23.50;;;;;;;6.55;63.13;99315.71;234903;1193;139840;-72
2022/12/30 17:50:08;;;;;;;;;;;;;;;;;;;;;
2022/12/30 17:55:34;;;;;;;113.20;76.70;;;;;;;6.31;64.02;99316.85;234950;1198;140573;-73
2022/12/30 18:01:28;;;;;;;;;;;;;;;;;;;;;
2022/12/30 18:06:44;;;;;;;44.00;26.80;;;;;;;6.39;64.19;99306.66;234656;1197;138927;-71
2022/12/30 18:12:02;;;;;;;42.80;27.70;;;;;;;6.27;63.71;99306.77;235043;1197;140069;-72
2022/12/30 18:17:26;;;;;;;56.70;31.00;;;;;;;6.27;63.61;99303.45;235070;1193;140189;-71
2022/12/30 18:23:19;;;;;;;55.40;34.30;;;;;;;6.20;63.54;99297.55;234961;1193;139146;-71
2022/12/30 18:28:23;;;;;;;54.70;33.10;;;;;;;6.12;63.60;99290.65;235014;1193;138996;-71
2022/12/30 18:33:29;;;;;;;58.60;36.00;;;;;;;5.99;63.61;99279.02;234774;1193;139072;-71
2022/12/30 18:38:49;;;;;;;60.10;36.30;;;;;;;5.90;63.74;99278.61;234819;1193;139883;-74
2022/12/30 18:44:09;;;;;;;54.70;35.50;;;;;;;5.83;63.84;99290.51;234914;1197;139036;-74
2022/12/30 18:49:27;;;;;;;53.80;35.30;;;;;;;5.75;63.82;99296.30;234859;1193;139573;-70
2022/12/30 18:54:52;;;;;;;61.10;36.00;;;;;;;5.67;64.20;99303.27;234810;1193;139858;-71
2022/12/30 19:00:15;;;;;;;65.00;40.90;;;;;;;5.56;64.07;99298.58;234875;1193;139291;-71
2022/12/30 19:05:19;;;;;;;76.50;44.80;;;;;;;5.47;64.67;99286.27;234915;1197;139428;-72
2022/12/30 19:10:34;;;;;;;307.30;189.60;;;;;;;5.44;65.21;99278.11;234910;1193;140237;-71
2022/12/30 19:15:55;;;;;;;73.70;46.30;;;;;;;5.54;65.49;99277.04;234850;1197;139668;-70
2022/12/30 19:21:41;;;;;;;;;;;;;;;;;;;;;
2022/12/30 19:27:05;;;;;;;77.40;44.30;;;;;;;5.31;64.34;99275.05;234957;1196;138958;-70
2022/12/30 19:32:37;;;;;;;71.50;45.40;;;;;;;5.25;64.64;99270.02;234714;1193;140394;-68
2022/12/30 19:38:48;;;;;;;66.90;40.40;;;;;;;5.19;64.61;99260.70;234966;1197;138867;-68
2022/12/30 19:44:42;;;;;;;103.80;61.70;;;;;;;5.08;64.77;99265.19;235009;1193;139036;-69
2022/12/30 19:50:13;;;;;;;65.80;39.60;;;;;;;5.31;67.52;99255.19;234879;1193;139260;-72
2022/12/30 19:56:01;;;;;;;64.90;40.80;;;;;;;5.33;64.70;99245.45;235015;1193;139496;-71
2022/12/30 20:01:57;;;;;;;;;;;;;;;;;;;;;
2022/12/30 20:07:22;;;;;;;69.50;41.30;;;;;;;5.20;64.44;99242.23;234814;1197;139169;-68
2022/12/30 20:13:09;;;;;;;66.30;39.90;;;;;;;5.09;64.46;99242.11;234845;1196;139418;-69
2022/12/30 20:19:15;;;;;;;64.30;39.70;;;;;;;4.98;64.59;99259.19;235042;1196;138866;-70
2022/12/30 20:24:46;;;;;;;67.40;39.50;;;;;;;4.92;65.24;99267.13;234975;1193;139236;-69
2022/12/30 20:30:44;;;;;;;63.40;39.50;;;;;;;4.86;65.19;99271.05;234778;1196;138988;-69
2022/12/30 20:37:11;;;;;;;71.80;40.70;;;;;;;4.79;65.42;99273.40;234853;1193;139485;-70
2022/12/30 20:43:33;;;;;;;65.90;38.50;;;;;;;4.76;65.12;99264.20;235153;1193;139077;-69
2022/12/30 20:49:57;;;;;;;;;;;;;;;;;;;;;
2022/12/30 20:55:54;;;;;;;77.70;43.20;;;;;;;4.67;64.96;99252.03;234766;1193;138834;-71
2022/12/30 21:02:05;;;;;;;71.80;42.70;;;;;;;4.62;64.53;99257.66;234714;1194;244375;-70
2022/12/30 21:08:11;;;;;;;74.80;43.80;;;;;;;4.51;64.70;99255.73;234945;1196;138861;-72
2022/12/30 21:14:15;;;;;;;73.30;43.90;;;;;;;4.40;64.47;99254.71;234940;1193;139292;-72
2022/12/30 21:20:19;;;;;;;75.90;42.80;;;;;;;4.32;64.61;99247.58;234826;1197;208211;-70
2022/12/30 21:25:27;;;;;;;67.40;43.10;;;;;;;4.25;65.08;99246.77;234910;1196;139110;-71
2022/12/30 21:37:39;;;;;;;;;;;;;;;;;;;;;
2022/12/30 22:06:19;;;;;;;82.20;49.60;;;;;;;4.22;65.64;99240.38;234971;1196;141185;-71
2022/12/30 22:12:28;;;;;;;72.60;44.20;;;;;;;4.22;65.72;99228.98;235102;1195;140126;-69
2022/12/30 22:18:52;;;;;;;72.50;44.30;;;;;;;4.19;65.95;99222.03;235109;1196;138956;-69
2022/12/30 22:24:48;;;;;;;70.10;42.00;;;;;;;4.21;66.46;99222.14;234886;1193;139754;-68
2022/12/30 22:29:56;;;;;;;68.10;41.60;;;;;;;4.26;66.22;99218.12;235113;1196;139036;-69
2022/12/30 22:35:35;;;;;;;74.30;42.70;;;;;;;4.24;66.64;99213.41;235057;1194;139669;-67
2022/12/30 22:41:38;;;;;;;73.30;41.90;;;;;;;4.26;66.85;99210.55;234969;1193;139874;-70
2022/12/30 22:47:37;;;;;;;68.30;40.60;;;;;;;4.28;66.99;99208.05;234872;1194;139649;-72
2022/12/30 22:52:52;;;;;;;72.50;41.40;;;;;;;4.30;66.99;99202.73;234883;1196;139313;-70
2022/12/30 22:58:43;;;;;;;64.40;40.30;;;;;;;4.30;67.23;99199.52;235006;1193;138989;-70
2022/12/30 23:04:24;;;;;;;69.00;40.90;;;;;;;4.36;67.12;99189.49;234915;1193;139396;-71
2022/12/30 23:10:36;;;;;;;68.30;40.40;;;;;;;4.45;67.06;99187.92;235020;1193;139892;-68
2022/12/30 23:27:55;;;;;;;68.90;39.90;;;;;;;4.62;66.90;99164.88;234702;1196;139217;-68
2022/12/30 23:33:18;;;;;;;;;;;;;;;;;;;;;
2022/12/30 23:39:00;;;;;;;64.80;39.00;;;;;;;4.63;66.56;99150.77;234857;1192;139144;-70
2022/12/30 23:44:47;;;;;;;60.90;36.70;;;;;;;4.57;66.78;99150.14;234995;1196;139134;-70
2022/12/30 23:50:56;;;;;;;64.60;37.10;;;;;;;4.50;66.65;99152.98;234931;1193;140352;-71
2022/12/30 23:56:15;;;;;;;;;;;;;;;;;;;;;
